Presque Isle, WI

6:01 PM CDT on April 28, 2017 (GMT -0500)
KC9AMX STATELINE LAKE | | Change Station

Elev 1663 ft 46.26 °N, 89.72 °W | Updated 15 seconds ago

Overcast
Overcast
37.1 °F
Feels Like 37 °F
N
0.0
Wind Variable Wind from ENE
Gusts 0.0 mph

Today
High -- | Low -- °F
--% Chance of Precip.
Yesterday
High -- | Low -- °F
Precip. -- in
Pressure 29.93 in
Visibility 10.0 miles
Clouds Mostly Cloudy 3200 ft
Overcast 3700 ft
Windchill 37 °F
Dew Point 32 °F
Humidity 82%
Rainfall 0.00 in
Snow Depth Not available.
5:49 AM 8:04 PM
Waxing Crescent, 9% visible
METAR KD25 282235Z AUTO 32004KT 10SM BKN032 OVC037 03/M02 A2993 RMK AO2 T00341018
Pressure 29.93 in
Visibility 10.0 miles
Clouds Mostly Cloudy 3200 ft
Overcast 3700 ft
Windchill 37 °F
Dew Point 32 °F
Humidity 82%
Rainfall 0.00 in
Snow Depth Not available.
5:49 AM 8:04 PM
Waxing Crescent, 9% visible
METAR KD25 282235Z AUTO 32004KT 10SM BKN032 OVC037 03/M02 A2993 RMK AO2 T00341018

Get Severe Weather Alerts

Thanks for signing up!

Be on the lookout for a verification email in your inbox.

You'll start receiving the daily forecast at 8 AM.

×

10-Day Weather Forecast

Almanac

Astronomy

Apr. 28, 2017 Rise Set
Actual Time
Civil Twilight
Nautical Twilight
Astronomical Twilight
Moon
Length of Visible Light
Length of Day
Tomorrow will be .
, % of the Moon is Illuminated

Today's Extremes

State Highs State Lows

Community

WunderPhotos

WunderBlog® & News

Nearby

Air Quality

  Air Quality AQ Index Pollutant
Not available.

Snow Depth

Station Depth Elevation

Earthquake Activity

City Distance Mag. Time & Date
Minimum magnitude displayed is 2.5.

Coastal Water Temperatures

Place Temperature

Stations

Nearby Weather Stations

Station Location Temp. Windchill Dew Point Humidity Wind Precip. Elev Updated Type
                   

Watches & Warnings

There are currently no watches in effect.